• Join FlightAware (Why Join?)
  • Login
  • US Flag 
10:03AM EDT


 

Airport Tracker/Info


-or-


 

Live Flight TrackerFlight Track Log ✈ SKW4632 ✈ 23-Aug-2013 ✈ KMSO - KSLC

Flight Track Log - Related Links

Times and Time Zones

All times are in EDT time to prevent confusion due to time zone crossing. See the SKW4632 flight status page for this flight to view local times or setup timezone preferences in your user account.

Time Position Orientation Groundspeed Altitude Reporting Facility
EDT Latitude Longitude Course Direction KTS MPH feet Rate Location/Type
03:20PM 46.8167 -114.0664 180° South 216 249 6,500  Level Salt Lake Center
03:21PM 46.6651 -113.9945 180° South  Level Estimated
03:21PM 46.7331 -114.0489 172° South 281 323 8,700  Level Salt Lake Center
03:22PM 46.5886 -114.0536 208° Southwest  Level FlightAware Approximate
03:22PM 46.6553 -114.0319 171° South 284 327 11,000  Level Salt Lake Center
03:23PM 46.5051 -114.0205 180° South  Level Estimated
03:23PM 46.5647 -114.0269 178° South 305 351 12,600  Level Salt Lake Center
03:24PM 46.4124 -113.9840 180° South  Level Estimated
03:24PM 46.4869 -114.0811 206° Southwest 312 359 14,000  Level Salt Lake Center
03:25PM 46.3900 -114.0844 181° South 333 383 15,400 1,260 Climbing Salt Lake Center
03:26PM 46.2953 -114.0831 179° South 340 391 16,700 1,140 Climbing Salt Lake Center
03:27PM 46.1981 -114.0822 180° South 348 400 17,800 1,140 Climbing Salt Lake Center
03:28PM 46.0994 -114.0839 181° South 354 407 19,100 1,020 Climbing Salt Lake Center
03:29PM 46.0006 -114.0850 180° South 354 407 20,000 840 Climbing Salt Lake Center
03:30PM 45.9000 -114.0850 180° South 359 413 20,900 840 Climbing Salt Lake Center
03:31PM 45.7781 -114.0839 180° South 365 420 21,800 780 Climbing Salt Lake Center
03:32PM 45.6744 -114.0850 180° South 369 425 22,600 720 Climbing Salt Lake Center
03:33PM 45.5619 -114.0847 180° South 375 432 23,400 660 Climbing Salt Lake Center
03:34PM 45.4619 -114.0842 180° South 375 432 24,000 540 Climbing Salt Lake Center
03:35PM 45.3428 -114.0831 180° South 382 440 24,600 480 Climbing Salt Lake Center
03:36PM 45.2386 -114.0844 181° South 388 447 25,100 540 Climbing Salt Lake Center
03:37PM 45.1169 -114.0842 180° South 391 450 25,800 660 Climbing Salt Lake Center
03:38PM 45.0122 -114.0781 178° South 392 451 26,500 660 Climbing Salt Lake Center
03:39PM 44.8997 -113.9992 154° Southeast 404 465 27,200 600 Climbing Salt Lake Center
03:40PM 44.8000 -113.9575 163° South 398 458 27,800 600 Climbing Salt Lake Center
03:41PM 44.6811 -113.9228 168° South 395 455 28,500 600 Climbing Salt Lake Center
03:42PM 44.5808 -113.8961 169° South 389 448 29,100 480 Climbing Salt Lake Center
03:43PM 44.4817 -113.8792 173° South 383 441 29,600 540 Climbing Salt Lake Center
03:45PM 44.3661 -113.8656 175° South 377 434 30,300 600 Climbing Salt Lake Center
03:46PM 44.2686 -113.8542 175° South 373 429 30,900 300 Climbing Salt Lake Center
03:47PM 44.1553 -113.8414 175° South 370 426 31,000  Climbing Salt Lake Center
03:48PM 44.0564 -113.8311 176° South 370 426 31,000  Level Salt Lake Center
03:49PM 43.9450 -113.7728 159° South 394 453 31,000  Level Salt Lake Center
03:50PM 43.8600 -113.6839 143° Southeast 401 461 31,000  Level Salt Lake Center
03:51PM 43.7594 -113.5786 143° Southeast 404 465 31,000  Level Salt Lake Center
03:52PM 43.6739 -113.4872 142° Southeast 406 467 31,000  Level Salt Lake Center
03:53PM 43.5742 -113.3806 142° Southeast 407 468 31,000  Level Salt Lake Center
03:54PM 43.4878 -113.2911 143° Southeast 407 468 31,000  Level Salt Lake Center
03:55PM 43.3875 -113.1856 143° Southeast 407 468 31,000  Level Salt Lake Center
03:56PM 43.2875 -113.1528 167° South 389 448 31,000  Level Salt Lake Center
03:57PM 43.1683 -113.1169 168° South 391 450 31,000  Level Salt Lake Center
03:58PM 43.0669 -113.0869 168° South 390 449 31,000  Level Salt Lake Center
03:59PM 42.9478 -113.0553 169° South 390 449 31,000  Level Salt Lake Center
04:00PM 42.8450 -113.0297 170° South 393 452 31,000  Level Salt Lake Center
04:01PM 42.7250 -112.9992 169° South 392 451 31,000  Level Salt Lake Center
04:02PM 42.6247 -112.9772 171° South 397 457 31,000  Level Salt Lake Center
04:03PM 42.5153 -112.9533 171° South 399 459 31,000  Level Salt Lake Center
04:04PM 42.4108 -112.8989 159° South 405 466 31,000  Level Salt Lake Center
04:05PM 42.2825 -112.8386 161° South 408 470 31,000 -120 Level Salt Lake Center
04:06PM 42.1753 -112.7892 161° South 409 471 30,800 -1,500 Descending Salt Lake Center
04:07PM 42.0653 -112.7358 160° South 418 481 27,900 -2,880 Descending Salt Lake Center
04:08PM 41.9556 -112.6844 161° South 418 481 24,900 -2,940 Descending Salt Lake Center
04:09PM 41.8492 -112.6367 162° South 409 471 21,900 -2,940 Descending Salt Lake Center
04:10PM 41.7469 -112.5911 162° South 397 457 18,900 -3,120 Descending Salt Lake Center
04:11PM 41.6594 -112.5433 158° South 381 438 16,200 -1,620 Descending Salt Lake Center
04:12PM 41.5578 -112.4944 160° South 325 374 15,800 -720 Descending Salt Lake Center
04:13PM 41.4839 -112.4333 148° Southeast 316 364 14,700 -1,140 Descending Salt Lake Center
04:14PM 41.4261 -112.3556 135° Southeast 300 345 13,600 -1,200 Descending Salt Lake Center
04:15PM 41.3692 -112.2719 132° Southeast 301 346 12,300 -1,320 Descending Salt Lake Center
04:16PM 41.3122 -112.1886 132° Southeast 304 350 11,000 -900 Descending Salt Lake Center
04:17PM 41.2594 -112.1267 139° Southeast 245 282 10,500 -540 Descending Salt Lake Center
04:18PM 41.2056 -112.0708 142° Southeast 245 282 10,000 -240 Descending Salt Lake Center
04:19PM 41.1319 -112.0361 160° South 239 275 10,000 -240 Level Salt Lake Center
04:20PM 41.0747 -112.0300 175° South 203 234 9,500 -840 Descending Salt Lake Center
04:21PM 41.0222 -112.0253 176° South 190 219 8,400 -1,140 Descending Salt Lake Center
04:22PM 40.9736 -112.0189 174° South 189 217 7,300 -1,080 Descending Salt Lake Center
04:23PM 40.9272 -112.0122 174° South 173 199 6,400 -900 Descending Salt Lake Center
04:24PM 40.8856 -112.0092 177° South 140 161 5,600 -720 Descending Salt Lake Center
04:25PM 40.8483 -112.0050 175° South 132 152 5,000 -600 Descending Salt Lake Center
04:27PM 40.8014 -111.9983 174° South 127 146 4,200 -600 Descending Salt Lake Center
04:29PM 40.7884 -111.9778 153° Southeast  Level Estimated